sensor_id;sensor_type;location;lat;lon;timestamp;P1;durP1;ratioP1;P2;durP2;ratioP2
74945;SDS011;63509;45.250;38.102;2023-07-30T00:02:00;13.07;;;5.28;;
74945;SDS011;63509;45.250;38.102;2023-07-30T00:04:26;17.10;;;5.95;;
74945;SDS011;63509;45.250;38.102;2023-07-30T00:06:52;14.13;;;6.28;;
74945;SDS011;63509;45.250;38.102;2023-07-30T00:09:18;18.05;;;4.47;;
74945;SDS011;63509;45.250;38.102;2023-07-30T00:11:45;8.75;;;4.30;;
74945;SDS011;63509;45.250;38.102;2023-07-30T00:14:11;5.80;;;3.28;;
74945;SDS011;63509;45.250;38.102;2023-07-30T00:16:38;5.85;;;3.13;;
74945;SDS011;63509;45.250;38.102;2023-07-30T00:19:04;14.02;;;3.28;;
74945;SDS011;63509;45.250;38.102;2023-07-30T00:21:30;7.40;;;2.83;;
74945;SDS011;63509;45.250;38.102;2023-07-30T00:23:56;15.05;;;3.20;;
74945;SDS011;63509;45.250;38.102;2023-07-30T00:26:23;10.05;;;2.20;;
74945;SDS011;63509;45.250;38.102;2023-07-30T00:28:51;4.85;;;2.60;;
74945;SDS011;63509;45.250;38.102;2023-07-30T00:31:19;7.60;;;2.95;;
74945;SDS011;63509;45.250;38.102;2023-07-30T00:33:45;6.40;;;3.20;;
74945;SDS011;63509;45.250;38.102;2023-07-30T00:36:11;3.45;;;2.13;;
74945;SDS011;63509;45.250;38.102;2023-07-30T00:38:37;6.22;;;2.80;;
74945;SDS011;63509;45.250;38.102;2023-07-30T00:41:03;11.23;;;2.40;;
74945;SDS011;63509;45.250;38.102;2023-07-30T00:43:29;14.15;;;3.13;;
74945;SDS011;63509;45.250;38.102;2023-07-30T00:45:55;5.68;;;2.47;;
74945;SDS011;63509;45.250;38.102;2023-07-30T00:48:21;9.60;;;2.45;;
74945;SDS011;63509;45.250;38.102;2023-07-30T00:50:48;7.97;;;3.25;;
74945;SDS011;63509;45.250;38.102;2023-07-30T00:53:14;5.05;;;2.28;;
74945;SDS011;63509;45.250;38.102;2023-07-30T00:55:43;5.10;;;2.58;;
74945;SDS011;63509;45.250;38.102;2023-07-30T00:58:09;6.20;;;2.47;;
74945;SDS011;63509;45.250;38.102;2023-07-30T01:00:38;6.82;;;2.08;;
74945;SDS011;63509;45.250;38.102;2023-07-30T01:03:05;4.88;;;2.17;;
74945;SDS011;63509;45.250;38.102;2023-07-30T01:05:31;5.97;;;2.65;;
74945;SDS011;63509;45.250;38.102;2023-07-30T01:07:57;18.33;;;3.13;;
74945;SDS011;63509;45.250;38.102;2023-07-30T01:10:24;5.57;;;2.67;;
74945;SDS011;63509;45.250;38.102;2023-07-30T01:12:51;4.20;;;2.25;;
74945;SDS011;63509;45.250;38.102;2023-07-30T01:15:19;7.38;;;2.72;;
74945;SDS011;63509;45.250;38.102;2023-07-30T01:17:45;8.90;;;2.53;;
74945;SDS011;63509;45.250;38.102;2023-07-30T01:20:11;5.40;;;3.10;;
74945;SDS011;63509;45.250;38.102;2023-07-30T01:22:37;3.42;;;1.75;;
74945;SDS011;63509;45.250;38.102;2023-07-30T01:25:04;4.25;;;2.40;;
74945;SDS011;63509;45.250;38.102;2023-07-30T01:27:31;12.07;;;1.92;;
74945;SDS011;63509;45.250;38.102;2023-07-30T01:32:57;6.72;;;2.50;;
74945;SDS011;63509;45.250;38.102;2023-07-30T01:35:27;6.75;;;1.95;;
74945;SDS011;63509;45.250;38.102;2023-07-30T01:37:54;3.35;;;2.10;;
74945;SDS011;63509;45.250;38.102;2023-07-30T01:40:20;6.38;;;2.25;;
74945;SDS011;63509;45.250;38.102;2023-07-30T01:42:48;6.90;;;2.20;;
74945;SDS011;63509;45.250;38.102;2023-07-30T01:45:16;3.63;;;1.90;;
74945;SDS011;63509;45.250;38.102;2023-07-30T01:47:42;6.78;;;2.53;;
74945;SDS011;63509;45.250;38.102;2023-07-30T01:50:08;3.60;;;2.20;;
74945;SDS011;63509;45.250;38.102;2023-07-30T01:52:35;4.65;;;2.83;;
74945;SDS011;63509;45.250;38.102;2023-07-30T01:55:01;7.53;;;2.45;;
74945;SDS011;63509;45.250;38.102;2023-07-30T01:57:27;6.18;;;3.40;;
74945;SDS011;63509;45.250;38.102;2023-07-30T01:59:53;4.07;;;2.28;;
74945;SDS011;63509;45.250;38.102;2023-07-30T02:02:20;7.07;;;1.85;;
74945;SDS011;63509;45.250;38.102;2023-07-30T02:04:46;2.95;;;1.65;;
74945;SDS011;63509;45.250;38.102;2023-07-30T02:07:12;3.50;;;2.03;;
74945;SDS011;63509;45.250;38.102;2023-07-30T02:09:38;3.65;;;2.08;;
74945;SDS011;63509;45.250;38.102;2023-07-30T02:12:05;5.22;;;2.47;;
74945;SDS011;63509;45.250;38.102;2023-07-30T02:14:31;8.60;;;3.47;;
74945;SDS011;63509;45.250;38.102;2023-07-30T02:17:00;6.53;;;2.45;;
74945;SDS011;63509;45.250;38.102;2023-07-30T02:19:26;15.88;;;3.03;;
74945;SDS011;63509;45.250;38.102;2023-07-30T02:21:52;7.07;;;2.97;;
74945;SDS011;63509;45.250;38.102;2023-07-30T02:24:18;6.57;;;3.17;;
74945;SDS011;63509;45.250;38.102;2023-07-30T02:26:44;4.07;;;2.50;;
74945;SDS011;63509;45.250;38.102;2023-07-30T02:29:11;7.20;;;2.50;;
74945;SDS011;63509;45.250;38.102;2023-07-30T02:31:37;6.22;;;2.72;;
74945;SDS011;63509;45.250;38.102;2023-07-30T02:34:03;7.38;;;1.88;;
74945;SDS011;63509;45.250;38.102;2023-07-30T02:36:29;9.85;;;2.97;;
74945;SDS011;63509;45.250;38.102;2023-07-30T02:38:55;4.13;;;2.78;;
74945;SDS011;63509;45.250;38.102;2023-07-30T02:41:21;4.68;;;2.33;;
74945;SDS011;63509;45.250;38.102;2023-07-30T02:43:47;6.40;;;2.30;;
74945;SDS011;63509;45.250;38.102;2023-07-30T02:46:13;11.70;;;2.40;;
74945;SDS011;63509;45.250;38.102;2023-07-30T02:48:39;8.45;;;2.53;;
74945;SDS011;63509;45.250;38.102;2023-07-30T02:51:06;4.18;;;2.50;;
74945;SDS011;63509;45.250;38.102;2023-07-30T02:53:31;4.82;;;2.60;;
74945;SDS011;63509;45.250;38.102;2023-07-30T02:55:58;3.47;;;2.15;;
74945;SDS011;63509;45.250;38.102;2023-07-30T02:58:24;10.15;;;2.80;;
74945;SDS011;63509;45.250;38.102;2023-07-30T03:00:50;5.40;;;1.75;;
74945;SDS011;63509;45.250;38.102;2023-07-30T03:03:16;4.07;;;2.40;;
74945;SDS011;63509;45.250;38.102;2023-07-30T03:05:42;4.97;;;2.30;;
74945;SDS011;63509;45.250;38.102;2023-07-30T03:08:09;4.47;;;2.17;;
74945;SDS011;63509;45.250;38.102;2023-07-30T03:10:38;5.32;;;2.40;;
74945;SDS011;63509;45.250;38.102;2023-07-30T03:13:04;3.28;;;1.98;;
74945;SDS011;63509;45.250;38.102;2023-07-30T03:15:31;5.80;;;2.90;;
74945;SDS011;63509;45.250;38.102;2023-07-30T03:17:56;10.77;;;2.20;;
74945;SDS011;63509;45.250;38.102;2023-07-30T03:20:23;7.78;;;2.28;;
74945;SDS011;63509;45.250;38.102;2023-07-30T03:22:49;5.75;;;2.65;;
74945;SDS011;63509;45.250;38.102;2023-07-30T03:25:16;5.30;;;2.38;;
74945;SDS011;63509;45.250;38.102;2023-07-30T03:27:42;9.95;;;2.72;;
74945;SDS011;63509;45.250;38.102;2023-07-30T03:30:08;11.40;;;2.30;;
74945;SDS011;63509;45.250;38.102;2023-07-30T03:32:34;16.90;;;2.33;;
74945;SDS011;63509;45.250;38.102;2023-07-30T03:35:01;11.77;;;2.60;;
74945;SDS011;63509;45.250;38.102;2023-07-30T03:37:27;8.60;;;2.30;;
74945;SDS011;63509;45.250;38.102;2023-07-30T03:39:53;11.65;;;1.95;;
74945;SDS011;63509;45.250;38.102;2023-07-30T03:42:19;7.38;;;2.22;;
74945;SDS011;63509;45.250;38.102;2023-07-30T03:44:46;3.50;;;2.03;;
74945;SDS011;63509;45.250;38.102;2023-07-30T03:47:13;10.27;;;4.22;;
74945;SDS011;63509;45.250;38.102;2023-07-30T03:49:39;4.75;;;2.22;;
74945;SDS011;63509;45.250;38.102;2023-07-30T03:52:05;3.22;;;1.80;;
74945;SDS011;63509;45.250;38.102;2023-07-30T03:54:32;3.33;;;1.95;;
74945;SDS011;63509;45.250;38.102;2023-07-30T03:56:58;4.00;;;2.20;;
74945;SDS011;63509;45.250;38.102;2023-07-30T03:59:26;13.15;;;4.05;;
74945;SDS011;63509;45.250;38.102;2023-07-30T04:01:54;3.85;;;1.80;;
74945;SDS011;63509;45.250;38.102;2023-07-30T04:04:21;4.50;;;2.50;;
74945;SDS011;63509;45.250;38.102;2023-07-30T04:06:47;4.72;;;2.80;;
74945;SDS011;63509;45.250;38.102;2023-07-30T04:09:13;5.57;;;2.10;;
74945;SDS011;63509;45.250;38.102;2023-07-30T04:11:39;3.50;;;1.80;;
74945;SDS011;63509;45.250;38.102;2023-07-30T04:14:05;6.53;;;3.90;;
74945;SDS011;63509;45.250;38.102;2023-07-30T04:16:33;4.00;;;2.25;;
74945;SDS011;63509;45.250;38.102;2023-07-30T04:18:59;7.32;;;2.53;;
74945;SDS011;63509;45.250;38.102;2023-07-30T04:21:25;10.43;;;1.60;;
74945;SDS011;63509;45.250;38.102;2023-07-30T04:23:51;4.43;;;2.08;;
74945;SDS011;63509;45.250;38.102;2023-07-30T04:26:17;7.78;;;2.70;;
74945;SDS011;63509;45.250;38.102;2023-07-30T04:28:43;5.50;;;2.45;;
74945;SDS011;63509;45.250;38.102;2023-07-30T04:31:10;4.22;;;2.30;;
74945;SDS011;63509;45.250;38.102;2023-07-30T04:33:36;7.28;;;2.40;;
74945;SDS011;63509;45.250;38.102;2023-07-30T04:36:02;6.82;;;2.55;;
74945;SDS011;63509;45.250;38.102;2023-07-30T04:38:29;6.03;;;3.05;;
74945;SDS011;63509;45.250;38.102;2023-07-30T04:40:57;6.38;;;3.25;;
74945;SDS011;63509;45.250;38.102;2023-07-30T04:43:24;7.07;;;2.10;;
74945;SDS011;63509;45.250;38.102;2023-07-30T04:45:55;6.18;;;2.80;;
74945;SDS011;63509;45.250;38.102;2023-07-30T04:48:22;4.43;;;2.40;;
74945;SDS011;63509;45.250;38.102;2023-07-30T04:50:48;4.13;;;2.17;;
74945;SDS011;63509;45.250;38.102;2023-07-30T04:53:14;9.48;;;3.42;;
74945;SDS011;63509;45.250;38.102;2023-07-30T04:55:43;6.00;;;2.65;;
74945;SDS011;63509;45.250;38.102;2023-07-30T04:58:09;5.97;;;2.78;;
74945;SDS011;63509;45.250;38.102;2023-07-30T05:00:36;14.20;;;3.00;;
74945;SDS011;63509;45.250;38.102;2023-07-30T05:03:02;6.70;;;2.67;;
74945;SDS011;63509;45.250;38.102;2023-07-30T05:05:28;7.95;;;2.70;;
74945;SDS011;63509;45.250;38.102;2023-07-30T05:07:54;4.88;;;2.30;;
74945;SDS011;63509;45.250;38.102;2023-07-30T05:10:20;4.05;;;2.10;;
74945;SDS011;63509;45.250;38.102;2023-07-30T05:12:47;5.60;;;2.33;;
74945;SDS011;63509;45.250;38.102;2023-07-30T05:15:13;4.53;;;2.13;;
74945;SDS011;63509;45.250;38.102;2023-07-30T05:17:39;4.10;;;2.13;;
74945;SDS011;63509;45.250;38.102;2023-07-30T05:20:05;4.95;;;2.67;;
74945;SDS011;63509;45.250;38.102;2023-07-30T05:22:32;5.97;;;2.72;;
74945;SDS011;63509;45.250;38.102;2023-07-30T05:24:58;4.97;;;2.55;;
74945;SDS011;63509;45.250;38.102;2023-07-30T05:27:24;6.03;;;2.38;;
74945;SDS011;63509;45.250;38.102;2023-07-30T05:29:53;5.32;;;2.50;;
74945;SDS011;63509;45.250;38.102;2023-07-30T05:32:19;7.82;;;2.00;;
74945;SDS011;63509;45.250;38.102;2023-07-30T05:34:45;5.18;;;2.67;;
74945;SDS011;63509;45.250;38.102;2023-07-30T05:37:11;5.72;;;2.38;;
74945;SDS011;63509;45.250;38.102;2023-07-30T05:39:37;4.97;;;2.33;;
74945;SDS011;63509;45.250;38.102;2023-07-30T05:42:03;4.70;;;2.05;;
74945;SDS011;63509;45.250;38.102;2023-07-30T05:44:29;3.55;;;1.50;;
74945;SDS011;63509;45.250;38.102;2023-07-30T05:46:56;4.82;;;2.13;;
74945;SDS011;63509;45.250;38.102;2023-07-30T05:49:22;4.35;;;1.75;;
74945;SDS011;63509;45.250;38.102;2023-07-30T05:51:48;4.15;;;2.00;;
74945;SDS011;63509;45.250;38.102;2023-07-30T05:54:14;7.00;;;1.95;;
74945;SDS011;63509;45.250;38.102;2023-07-30T05:56:40;3.42;;;1.35;;
74945;SDS011;63509;45.250;38.102;2023-07-30T05:59:06;5.90;;;2.05;;
74945;SDS011;63509;45.250;38.102;2023-07-30T06:01:32;6.50;;;1.67;;
74945;SDS011;63509;45.250;38.102;2023-07-30T06:03:59;2.38;;;1.10;;
74945;SDS011;63509;45.250;38.102;2023-07-30T06:06:26;3.80;;;1.42;;
74945;SDS011;63509;45.250;38.102;2023-07-30T06:08:54;5.13;;;1.13;;
74945;SDS011;63509;45.250;38.102;2023-07-30T06:11:21;2.33;;;1.00;;
74945;SDS011;63509;45.250;38.102;2023-07-30T06:13:47;3.35;;;1.27;;
74945;SDS011;63509;45.250;38.102;2023-07-30T06:16:14;4.07;;;1.60;;
74945;SDS011;63509;45.250;38.102;2023-07-30T06:18:40;2.58;;;1.45;;
74945;SDS011;63509;45.250;38.102;2023-07-30T06:21:06;3.42;;;1.40;;
74945;SDS011;63509;45.250;38.102;2023-07-30T06:23:32;4.55;;;1.13;;
74945;SDS011;63509;45.250;38.102;2023-07-30T06:25:58;2.40;;;1.00;;
74945;SDS011;63509;45.250;38.102;2023-07-30T06:28:24;3.65;;;1.30;;
74945;SDS011;63509;45.250;38.102;2023-07-30T06:30:50;2.47;;;1.17;;
74945;SDS011;63509;45.250;38.102;2023-07-30T06:33:17;2.63;;;0.95;;
74945;SDS011;63509;45.250;38.102;2023-07-30T06:35:43;2.97;;;1.20;;
74945;SDS011;63509;45.250;38.102;2023-07-30T06:38:09;2.08;;;0.90;;
74945;SDS011;63509;45.250;38.102;2023-07-30T06:40:35;2.05;;;0.73;;
74945;SDS011;63509;45.250;38.102;2023-07-30T06:43:01;3.42;;;1.30;;
74945;SDS011;63509;45.250;38.102;2023-07-30T06:45:27;1.92;;;0.77;;
74945;SDS011;63509;45.250;38.102;2023-07-30T06:47:53;1.77;;;0.90;;
74945;SDS011;63509;45.250;38.102;2023-07-30T06:50:20;1.92;;;0.93;;
74945;SDS011;63509;45.250;38.102;2023-07-30T06:52:46;4.47;;;0.85;;
74945;SDS011;63509;45.250;38.102;2023-07-30T06:55:12;3.22;;;0.98;;
74945;SDS011;63509;45.250;38.102;2023-07-30T06:57:38;2.30;;;0.90;;
74945;SDS011;63509;45.250;38.102;2023-07-30T07:00:04;2.33;;;1.08;;
74945;SDS011;63509;45.250;38.102;2023-07-30T07:02:31;3.70;;;1.40;;
74945;SDS011;63509;45.250;38.102;2023-07-30T07:04:58;1.98;;;0.90;;
74945;SDS011;63509;45.250;38.102;2023-07-30T07:07:24;8.30;;;1.20;;
74945;SDS011;63509;45.250;38.102;2023-07-30T07:09:50;2.00;;;0.93;;
74945;SDS011;63509;45.250;38.102;2023-07-30T07:12:16;3.42;;;1.17;;
74945;SDS011;63509;45.250;38.102;2023-07-30T07:14:43;2.92;;;1.08;;
74945;SDS011;63509;45.250;38.102;2023-07-30T07:17:09;1.40;;;0.70;;
74945;SDS011;63509;45.250;38.102;2023-07-30T07:19:36;3.22;;;0.80;;
74945;SDS011;63509;45.250;38.102;2023-07-30T07:22:05;3.30;;;1.30;;
74945;SDS011;63509;45.250;38.102;2023-07-30T07:24:32;2.85;;;0.98;;
74945;SDS011;63509;45.250;38.102;2023-07-30T07:26:58;2.90;;;1.10;;
74945;SDS011;63509;45.250;38.102;2023-07-30T07:29:24;3.72;;;1.38;;
74945;SDS011;63509;45.250;38.102;2023-07-30T07:31:50;4.05;;;1.58;;
74945;SDS011;63509;45.250;38.102;2023-07-30T07:34:16;5.63;;;2.03;;
74945;SDS011;63509;45.250;38.102;2023-07-30T07:36:42;5.28;;;1.67;;
74945;SDS011;63509;45.250;38.102;2023-07-30T07:39:08;4.60;;;1.77;;
74945;SDS011;63509;45.250;38.102;2023-07-30T07:41:34;3.00;;;1.20;;
74945;SDS011;63509;45.250;38.102;2023-07-30T07:44:00;3.35;;;1.00;;
74945;SDS011;63509;45.250;38.102;2023-07-30T07:46:26;4.40;;;1.40;;
74945;SDS011;63509;45.250;38.102;2023-07-30T07:48:52;3.63;;;1.33;;
74945;SDS011;63509;45.250;38.102;2023-07-30T07:51:18;2.85;;;1.40;;
74945;SDS011;63509;45.250;38.102;2023-07-30T07:53:45;3.22;;;1.50;;
74945;SDS011;63509;45.250;38.102;2023-07-30T07:56:11;2.75;;;0.90;;
74945;SDS011;63509;45.250;38.102;2023-07-30T07:58:38;1.88;;;1.00;;
74945;SDS011;63509;45.250;38.102;2023-07-30T08:01:04;2.78;;;1.27;;
74945;SDS011;63509;45.250;38.102;2023-07-30T08:03:30;3.30;;;1.15;;
74945;SDS011;63509;45.250;38.102;2023-07-30T08:05:56;2.60;;;1.10;;
74945;SDS011;63509;45.250;38.102;2023-07-30T08:08:23;2.40;;;1.10;;
74945;SDS011;63509;45.250;38.102;2023-07-30T08:10:51;2.38;;;0.98;;
74945;SDS011;63509;45.250;38.102;2023-07-30T08:13:17;2.22;;;1.10;;
74945;SDS011;63509;45.250;38.102;2023-07-30T08:15:43;2.33;;;1.17;;
74945;SDS011;63509;45.250;38.102;2023-07-30T08:18:09;2.40;;;1.00;;
74945;SDS011;63509;45.250;38.102;2023-07-30T08:20:35;2.45;;;1.02;;
74945;SDS011;63509;45.250;38.102;2023-07-30T08:23:02;3.08;;;1.48;;
74945;SDS011;63509;45.250;38.102;2023-07-30T08:25:28;7.63;;;2.03;;
74945;SDS011;63509;45.250;38.102;2023-07-30T08:27:54;3.30;;;1.40;;
74945;SDS011;63509;45.250;38.102;2023-07-30T08:30:20;4.28;;;1.40;;
74945;SDS011;63509;45.250;38.102;2023-07-30T08:32:46;3.38;;;1.67;;
74945;SDS011;63509;45.250;38.102;2023-07-30T08:35:12;1.92;;;0.90;;
74945;SDS011;63509;45.250;38.102;2023-07-30T08:37:38;3.10;;;1.27;;
74945;SDS011;63509;45.250;38.102;2023-07-30T08:40:06;2.28;;;1.13;;
74945;SDS011;63509;45.250;38.102;2023-07-30T08:42:33;2.33;;;0.98;;
74945;SDS011;63509;45.250;38.102;2023-07-30T08:44:59;3.83;;;1.38;;
74945;SDS011;63509;45.250;38.102;2023-07-30T08:47:25;2.00;;;1.05;;
74945;SDS011;63509;45.250;38.102;2023-07-30T08:49:51;2.58;;;1.10;;
74945;SDS011;63509;45.250;38.102;2023-07-30T08:52:18;3.45;;;0.95;;
74945;SDS011;63509;45.250;38.102;2023-07-30T08:54:46;2.22;;;0.93;;
74945;SDS011;63509;45.250;38.102;2023-07-30T08:57:15;2.10;;;0.93;;
74945;SDS011;63509;45.250;38.102;2023-07-30T09:02:30;2.90;;;1.38;;
74945;SDS011;63509;45.250;38.102;2023-07-30T09:05:04;5.13;;;1.20;;
74945;SDS011;63509;45.250;38.102;2023-07-30T09:07:31;2.10;;;1.00;;
74945;SDS011;63509;45.250;38.102;2023-07-30T09:09:57;4.28;;;1.20;;
74945;SDS011;63509;45.250;38.102;2023-07-30T09:12:30;4.50;;;1.10;;
74945;SDS011;63509;45.250;38.102;2023-07-30T09:14:57;3.45;;;1.17;;
74945;SDS011;63509;45.250;38.102;2023-07-30T09:17:23;2.67;;;0.98;;
74945;SDS011;63509;45.250;38.102;2023-07-30T09:19:50;2.13;;;1.10;;
74945;SDS011;63509;45.250;38.102;2023-07-30T09:25:00;3.33;;;1.50;;
74945;SDS011;63509;45.250;38.102;2023-07-30T09:27:28;4.85;;;1.13;;
74945;SDS011;63509;45.250;38.102;2023-07-30T09:29:55;2.13;;;1.08;;
74945;SDS011;63509;45.250;38.102;2023-07-30T09:32:29;2.70;;;1.23;;
74945;SDS011;63509;45.250;38.102;2023-07-30T09:35:14;2.75;;;1.08;;
74945;SDS011;63509;45.250;38.102;2023-07-30T09:37:40;3.13;;;0.95;;
74945;SDS011;63509;45.250;38.102;2023-07-30T09:40:07;2.50;;;1.27;;
74945;SDS011;63509;45.250;38.102;2023-07-30T09:42:35;3.60;;;1.20;;
74945;SDS011;63509;45.250;38.102;2023-07-30T09:45:05;3.50;;;1.30;;
74945;SDS011;63509;45.250;38.102;2023-07-30T09:47:38;6.07;;;1.30;;
74945;SDS011;63509;45.250;38.102;2023-07-30T09:50:04;3.70;;;1.45;;
74945;SDS011;63509;45.250;38.102;2023-07-30T09:52:31;3.50;;;1.25;;
74945;SDS011;63509;45.250;38.102;2023-07-30T09:55:00;2.50;;;1.00;;
74945;SDS011;63509;45.250;38.102;2023-07-30T09:57:26;4.15;;;1.70;;
74945;SDS011;63509;45.250;38.102;2023-07-30T09:59:52;4.10;;;1.40;;
74945;SDS011;63509;45.250;38.102;2023-07-30T10:02:19;4.70;;;1.10;;
74945;SDS011;63509;45.250;38.102;2023-07-30T10:04:46;2.70;;;1.00;;
74945;SDS011;63509;45.250;38.102;2023-07-30T10:07:16;2.60;;;1.35;;
74945;SDS011;63509;45.250;38.102;2023-07-30T10:09:45;5.05;;;1.25;;
74945;SDS011;63509;45.250;38.102;2023-07-30T10:12:15;3.50;;;1.05;;
74945;SDS011;63509;45.250;38.102;2023-07-30T10:14:43;2.35;;;0.95;;
74945;SDS011;63509;45.250;38.102;2023-07-30T10:17:10;2.72;;;1.10;;
74945;SDS011;63509;45.250;38.102;2023-07-30T10:19:36;3.35;;;1.13;;
74945;SDS011;63509;45.250;38.102;2023-07-30T10:24:38;2.50;;;1.05;;
74945;SDS011;63509;45.250;38.102;2023-07-30T10:27:05;3.65;;;1.30;;
74945;SDS011;63509;45.250;38.102;2023-07-30T10:29:34;2.97;;;1.35;;
74945;SDS011;63509;45.250;38.102;2023-07-30T10:32:05;4.13;;;1.20;;
74945;SDS011;63509;45.250;38.102;2023-07-30T10:34:47;3.67;;;1.42;;
74945;SDS011;63509;45.250;38.102;2023-07-30T10:37:20;2.72;;;1.45;;
74945;SDS011;63509;45.250;38.102;2023-07-30T10:39:49;4.80;;;1.27;;
74945;SDS011;63509;45.250;38.102;2023-07-30T10:42:16;3.13;;;1.45;;
74945;SDS011;63509;45.250;38.102;2023-07-30T10:44:44;2.45;;;1.40;;
74945;SDS011;63509;45.250;38.102;2023-07-30T10:47:10;3.20;;;1.38;;
74945;SDS011;63509;45.250;38.102;2023-07-30T10:49:37;2.55;;;1.38;;
74945;SDS011;63509;45.250;38.102;2023-07-30T10:52:09;3.20;;;1.02;;
74945;SDS011;63509;45.250;38.102;2023-07-30T10:54:35;2.70;;;1.00;;
74945;SDS011;63509;45.250;38.102;2023-07-30T10:57:02;4.15;;;1.23;;
74945;SDS011;63509;45.250;38.102;2023-07-30T10:59:35;3.60;;;1.23;;
74945;SDS011;63509;45.250;38.102;2023-07-30T11:02:02;2.10;;;1.33;;
74945;SDS011;63509;45.250;38.102;2023-07-30T11:04:29;6.13;;;1.65;;
74945;SDS011;63509;45.250;38.102;2023-07-30T11:06:59;4.93;;;1.40;;
74945;SDS011;63509;45.250;38.102;2023-07-30T11:09:26;3.10;;;1.50;;
74945;SDS011;63509;45.250;38.102;2023-07-30T11:11:54;3.05;;;1.70;;
74945;SDS011;63509;45.250;38.102;2023-07-30T11:14:22;3.83;;;1.50;;
74945;SDS011;63509;45.250;38.102;2023-07-30T11:16:52;2.53;;;1.27;;
74945;SDS011;63509;45.250;38.102;2023-07-30T11:19:19;3.00;;;1.35;;
74945;SDS011;63509;45.250;38.102;2023-07-30T11:21:46;2.75;;;1.45;;
74945;SDS011;63509;45.250;38.102;2023-07-30T11:26:39;2.58;;;1.42;;
74945;SDS011;63509;45.250;38.102;2023-07-30T11:29:18;2.38;;;1.27;;
74945;SDS011;63509;45.250;38.102;2023-07-30T11:31:46;3.00;;;1.35;;
74945;SDS011;63509;45.250;38.102;2023-07-30T11:34:13;4.10;;;1.67;;
74945;SDS011;63509;45.250;38.102;2023-07-30T11:36:41;5.68;;;2.15;;
74945;SDS011;63509;45.250;38.102;2023-07-30T11:41:34;3.38;;;1.70;;
74945;SDS011;63509;45.250;38.102;2023-07-30T11:44:01;7.78;;;1.88;;
74945;SDS011;63509;45.250;38.102;2023-07-30T11:46:27;4.63;;;2.10;;
74945;SDS011;63509;45.250;38.102;2023-07-30T11:51:41;4.60;;;2.30;;
74945;SDS011;63509;45.250;38.102;2023-07-30T11:54:07;4.72;;;1.95;;
74945;SDS011;63509;45.250;38.102;2023-07-30T11:56:43;2.65;;;1.58;;
74945;SDS011;63509;45.250;38.102;2023-07-30T11:59:10;2.65;;;1.42;;
74945;SDS011;63509;45.250;38.102;2023-07-30T12:01:36;4.25;;;1.58;;
74945;SDS011;63509;45.250;38.102;2023-07-30T12:04:03;2.47;;;1.20;;
74945;SDS011;63509;45.250;38.102;2023-07-30T12:06:39;4.63;;;1.52;;
74945;SDS011;63509;45.250;38.102;2023-07-30T12:09:10;3.50;;;1.65;;
74945;SDS011;63509;45.250;38.102;2023-07-30T12:12:00;3.33;;;1.20;;
74945;SDS011;63509;45.250;38.102;2023-07-30T12:14:28;3.72;;;1.17;;
74945;SDS011;63509;45.250;38.102;2023-07-30T12:17:07;7.00;;;1.45;;
74945;SDS011;63509;45.250;38.102;2023-07-30T12:19:33;3.20;;;1.33;;
74945;SDS011;63509;45.250;38.102;2023-07-30T12:22:01;5.78;;;1.73;;
74945;SDS011;63509;45.250;38.102;2023-07-30T12:24:28;3.42;;;1.42;;
74945;SDS011;63509;45.250;38.102;2023-07-30T12:26:54;3.88;;;1.50;;
74945;SDS011;63509;45.250;38.102;2023-07-30T12:29:20;3.47;;;1.60;;
74945;SDS011;63509;45.250;38.102;2023-07-30T12:31:46;5.18;;;1.90;;
74945;SDS011;63509;45.250;38.102;2023-07-30T12:34:12;2.95;;;1.50;;
74945;SDS011;63509;45.250;38.102;2023-07-30T12:36:39;3.65;;;1.27;;
74945;SDS011;63509;45.250;38.102;2023-07-30T12:39:05;5.38;;;1.83;;
74945;SDS011;63509;45.250;38.102;2023-07-30T12:41:33;6.63;;;1.40;;
74945;SDS011;63509;45.250;38.102;2023-07-30T12:43:59;2.50;;;1.30;;
74945;SDS011;63509;45.250;38.102;2023-07-30T12:46:25;4.22;;;1.25;;
74945;SDS011;63509;45.250;38.102;2023-07-30T12:48:56;2.28;;;1.27;;
74945;SDS011;63509;45.250;38.102;2023-07-30T12:51:22;3.30;;;1.60;;
74945;SDS011;63509;45.250;38.102;2023-07-30T12:53:48;12.35;;;1.85;;
74945;SDS011;63509;45.250;38.102;2023-07-30T12:56:15;5.10;;;1.35;;
74945;SDS011;63509;45.250;38.102;2023-07-30T12:58:41;2.75;;;1.50;;
74945;SDS011;63509;45.250;38.102;2023-07-30T13:01:07;2.40;;;1.20;;
74945;SDS011;63509;45.250;38.102;2023-07-30T13:03:33;2.60;;;1.02;;
74945;SDS011;63509;45.250;38.102;2023-07-30T13:06:00;2.72;;;1.25;;
74945;SDS011;63509;45.250;38.102;2023-07-30T13:08:27;4.15;;;0.93;;
74945;SDS011;63509;45.250;38.102;2023-07-30T13:10:53;3.92;;;1.45;;
74945;SDS011;63509;45.250;38.102;2023-07-30T13:13:19;2.85;;;1.65;;
74945;SDS011;63509;45.250;38.102;2023-07-30T13:15:45;2.40;;;1.25;;
74945;SDS011;63509;45.250;38.102;2023-07-30T13:18:11;4.07;;;1.20;;
74945;SDS011;63509;45.250;38.102;2023-07-30T13:20:37;4.25;;;0.93;;
74945;SDS011;63509;45.250;38.102;2023-07-30T13:23:03;6.15;;;1.67;;
74945;SDS011;63509;45.250;38.102;2023-07-30T13:25:30;6.38;;;1.40;;
74945;SDS011;63509;45.250;38.102;2023-07-30T13:27:56;2.30;;;0.95;;
74945;SDS011;63509;45.250;38.102;2023-07-30T13:30:22;3.85;;;1.75;;
74945;SDS011;63509;45.250;38.102;2023-07-30T13:32:48;3.78;;;1.50;;
74945;SDS011;63509;45.250;38.102;2023-07-30T13:35:14;4.35;;;2.00;;
74945;SDS011;63509;45.250;38.102;2023-07-30T13:37:40;5.80;;;1.80;;
74945;SDS011;63509;45.250;38.102;2023-07-30T13:40:07;5.22;;;1.38;;
74945;SDS011;63509;45.250;38.102;2023-07-30T13:42:33;2.10;;;1.30;;
74945;SDS011;63509;45.250;38.102;2023-07-30T13:44:59;3.90;;;1.75;;
74945;SDS011;63509;45.250;38.102;2023-07-30T13:47:25;3.63;;;1.90;;
74945;SDS011;63509;45.250;38.102;2023-07-30T13:49:51;3.53;;;1.70;;
74945;SDS011;63509;45.250;38.102;2023-07-30T13:52:19;6.40;;;1.58;;
74945;SDS011;63509;45.250;38.102;2023-07-30T13:54:46;2.40;;;0.90;;
74945;SDS011;63509;45.250;38.102;2023-07-30T13:57:12;2.63;;;1.30;;
74945;SDS011;63509;45.250;38.102;2023-07-30T13:59:38;2.80;;;1.13;;
74945;SDS011;63509;45.250;38.102;2023-07-30T14:02:05;2.95;;;1.58;;
74945;SDS011;63509;45.250;38.102;2023-07-30T14:04:31;3.78;;;1.52;;
74945;SDS011;63509;45.250;38.102;2023-07-30T14:06:58;1.90;;;1.17;;
74945;SDS011;63509;45.250;38.102;2023-07-30T14:09:23;3.30;;;1.10;;
74945;SDS011;63509;45.250;38.102;2023-07-30T14:11:52;2.72;;;1.40;;
74945;SDS011;63509;45.250;38.102;2023-07-30T14:14:18;2.22;;;1.13;;
74945;SDS011;63509;45.250;38.102;2023-07-30T14:16:47;2.28;;;1.15;;
74945;SDS011;63509;45.250;38.102;2023-07-30T14:19:13;2.40;;;1.23;;
74945;SDS011;63509;45.250;38.102;2023-07-30T14:21:39;3.10;;;1.40;;
74945;SDS011;63509;45.250;38.102;2023-07-30T14:24:05;3.10;;;1.48;;
74945;SDS011;63509;45.250;38.102;2023-07-30T14:26:32;3.72;;;0.90;;
74945;SDS011;63509;45.250;38.102;2023-07-30T14:28:58;5.00;;;1.00;;
74945;SDS011;63509;45.250;38.102;2023-07-30T14:31:24;2.92;;;1.20;;
74945;SDS011;63509;45.250;38.102;2023-07-30T14:33:50;5.63;;;2.65;;
74945;SDS011;63509;45.250;38.102;2023-07-30T14:36:16;4.95;;;2.28;;
74945;SDS011;63509;45.250;38.102;2023-07-30T14:38:42;5.13;;;1.92;;
74945;SDS011;63509;45.250;38.102;2023-07-30T14:41:09;2.83;;;1.60;;
74945;SDS011;63509;45.250;38.102;2023-07-30T14:43:36;3.75;;;2.28;;
74945;SDS011;63509;45.250;38.102;2023-07-30T14:46:03;5.90;;;2.35;;
74945;SDS011;63509;45.250;38.102;2023-07-30T14:48:29;5.07;;;2.38;;
74945;SDS011;63509;45.250;38.102;2023-07-30T14:50:55;7.22;;;3.13;;